createdAt,value
2023-03-17T04:45:45.050Z,5.07
2023-03-17T04:48:13.397Z,5.57
2023-03-17T04:50:42.611Z,6.63
2023-03-17T04:53:10.887Z,6.68
2023-03-17T04:55:39.483Z,6.53
2023-03-17T04:58:09.246Z,5.43
2023-03-17T18:44:16.248Z,5.27
2023-03-17T18:46:45.126Z,5.40
2023-03-17T18:49:13.363Z,6.38
2023-03-17T18:51:42.158Z,7.20
2023-03-17T18:54:11.768Z,6.85
2023-03-17T18:56:40.174Z,6.90
2023-03-17T18:59:08.802Z,7.97
2023-03-17T19:01:37.572Z,11.48
2023-03-17T19:04:06.563Z,12.00
2023-03-17T19:06:36.193Z,14.27
2023-03-17T19:09:04.339Z,17.58
2023-03-17T19:11:33.664Z,17.02
2023-03-17T19:14:02.951Z,22.38
2023-03-17T19:16:32.020Z,23.98
2023-03-17T19:19:00.730Z,15.65
2023-03-17T19:21:29.377Z,53.33
2023-03-17T19:24:00.984Z,42.40
2023-03-17T19:26:31.288Z,24.42
2023-03-17T19:29:02.818Z,21.10
2023-03-17T19:31:31.609Z,22.30
2023-03-17T19:34:00.137Z,16.58
2023-03-17T19:36:34.968Z,14.77
2023-03-17T19:39:05.016Z,12.43
2023-03-17T19:41:33.820Z,9.75
2023-03-17T19:44:02.697Z,8.10
2023-03-17T19:46:31.243Z,7.35
2023-03-17T19:49:00.653Z,6.13
2023-03-17T19:51:30.458Z,6.65
2023-03-17T19:53:58.732Z,7.00
2023-03-17T19:56:28.406Z,7.32
2023-03-17T19:58:56.617Z,6.50
2023-03-17T20:01:25.462Z,7.60
2023-03-17T20:03:53.642Z,8.65
2023-03-17T20:06:21.969Z,11.40
2023-03-17T20:08:50.228Z,11.15
2023-03-17T20:11:19.652Z,12.15
2023-03-17T20:13:48.318Z,13.57
2023-03-17T20:16:17.571Z,13.25
2023-03-17T20:18:45.531Z,11.57
2023-03-17T20:21:14.712Z,10.45
2023-03-17T20:23:43.377Z,8.00
2023-03-17T20:26:11.955Z,8.00
2023-03-17T20:28:40.743Z,7.32
2023-03-17T20:31:09.967Z,8.23
2023-03-17T20:33:38.212Z,7.70
2023-03-17T20:36:06.843Z,8.20
2023-03-17T20:38:37.491Z,7.03
2023-03-17T20:41:11.853Z,6.90
2023-03-17T20:43:41.260Z,6.78
2023-03-17T20:46:15.492Z,7.47
2023-03-17T20:48:45.184Z,7.82
2023-03-17T20:51:17.328Z,8.10
2023-03-17T20:53:47.369Z,8.13
2023-03-17T20:56:17.169Z,8.43
2023-03-17T20:58:47.495Z,8.30
2023-03-17T21:01:20.861Z,9.25
2023-03-17T21:03:50.109Z,12.27
2023-03-17T21:06:19.294Z,15.50
2023-03-17T21:08:47.756Z,32.75
2023-03-17T21:11:18.962Z,38.45
2023-03-17T21:13:47.944Z,20.52
2023-03-17T21:16:22.702Z,15.27
2023-03-17T21:18:51.954Z,12.05
2023-03-17T21:21:21.262Z,13.90
2023-03-17T21:23:50.353Z,12.20
2023-03-17T21:26:19.248Z,9.95
2023-03-17T21:28:49.558Z,8.50
2023-03-17T21:31:17.808Z,7.85
2023-03-17T21:33:49.408Z,8.82
2023-03-17T21:36:18.456Z,8.63
2023-03-17T21:38:46.931Z,8.45
2023-03-17T21:41:23.155Z,9.23
2023-03-17T21:43:51.528Z,9.73
2023-03-17T21:46:19.586Z,10.40
2023-03-17T21:48:48.390Z,9.65
2023-03-17T21:51:16.897Z,10.82
2023-03-17T21:53:45.134Z,9.60
2023-03-17T21:56:14.800Z,9.70
2023-03-17T21:58:43.685Z,8.75
2023-03-17T22:01:12.942Z,10.43
2023-03-17T22:03:42.877Z,10.90
2023-03-17T22:06:13.460Z,10.48
2023-03-17T22:08:41.994Z,10.50
2023-03-17T22:11:12.514Z,11.68
2023-03-17T22:13:41.884Z,9.30
2023-03-17T22:16:11.445Z,9.77
2023-03-17T22:18:39.904Z,9.93
2023-03-17T22:21:11.799Z,10.15
2023-03-17T22:23:42.938Z,9.93
2023-03-17T22:26:22.488Z,9.65
2023-03-17T22:28:51.480Z,8.43
2023-03-17T22:31:24.835Z,8.88
2023-03-17T22:33:56.010Z,9.50
2023-03-17T22:36:25.699Z,9.52
2023-03-17T22:38:55.571Z,9.70
2023-03-17T22:41:26.587Z,9.95
2023-03-17T22:43:55.531Z,10.55
2023-03-17T22:46:25.049Z,11.00
2023-03-17T22:48:54.015Z,10.77
2023-03-17T22:51:25.532Z,12.35
2023-03-17T22:53:54.282Z,10.70
2023-03-17T22:56:23.056Z,10.95
2023-03-17T22:58:51.968Z,10.65
2023-03-17T23:01:23.872Z,10.45
2023-03-17T23:03:53.117Z,10.75
2023-03-17T23:06:22.495Z,10.27
2023-03-17T23:08:51.736Z,10.38
2023-03-17T23:11:24.010Z,9.63
2023-03-17T23:13:53.028Z,10.57
2023-03-17T23:16:22.872Z,10.45
2023-03-17T23:18:51.923Z,8.20
2023-03-17T23:21:30.405Z,8.20
2023-03-17T23:23:59.269Z,8.70
2023-03-17T23:26:28.133Z,8.18
2023-03-17T23:28:56.653Z,8.85
2023-03-17T23:31:26.061Z,9.52
2023-03-17T23:33:54.074Z,10.50
2023-03-17T23:36:30.753Z,9.77
2023-03-17T23:38:58.860Z,10.30
2023-03-17T23:41:27.790Z,10.07
2023-03-17T23:43:59.467Z,10.07
2023-03-17T23:46:29.208Z,10.25
2023-03-17T23:48:58.955Z,9.95
2023-03-17T23:51:27.939Z,10.23
2023-03-17T23:53:56.854Z,10.02
2023-03-17T23:56:25.665Z,10.20
2023-03-17T23:58:53.736Z,10.73
